Time,TemperatureF,DewpointF,PressureIn,WindDirection,WindDirectionDegrees,WindSpeedMPH,WindSpeedGustMPH,Humidity,HourlyPrecipIn,Conditions,Clouds,dailyrainin,SolarRadiationWatts/m^2,SoftwareType,DateUTC
2013-09-29 00:01:00,54.3,52.8,30.27,East,79,0.0,2.0,95,0.00,,,0.00,0,HR-IXPWINDi_r2_v1.2.,2013-09-29 04:01:00,
2013-09-29 00:06:00,54.5,53.0,30.27,East,79,0.0,1.0,95,0.00,,,0.00,0,HR-IXPWINDi_r2_v1.2.,2013-09-29 04:06:00,
2013-09-29 00:11:00,54.3,52.8,30.26,East,79,0.0,0.0,95,0.00,,,0.00,0,HR-IXPWINDi_r2_v1.2.,2013-09-29 04:11:00,
2013-09-29 00:16:00,54.1,52.6,30.26,East,79,0.0,0.0,95,0.00,,,0.00,0,HR-IXPWINDi_r2_v1.2.,2013-09-29 04:16:00,
2013-09-29 00:21:00,54.6,53.4,30.26,East,79,0.0,1.0,96,0.00,,,0.00,0,HR-IXPWINDi_r2_v1.2.,2013-09-29 04:21:00,
2013-09-29 00:26:00,54.1,52.6,30.26,East,79,0.0,1.0,95,0.00,,,0.00,0,HR-IXPWINDi_r2_v1.2.,2013-09-29 04:26:00,
2013-09-29 00:31:00,53.8,52.3,30.26,NNE,22,0.0,3.0,95,0.00,,,0.00,0,HR-IXPWINDi_r2_v1.2.,2013-09-29 04:31:00,
2013-09-29 00:36:00,53.5,52.0,30.26,NNE,22,2.0,3.0,95,0.00,,,0.00,0,HR-IXPWINDi_r2_v1.2.,2013-09-29 04:36:00,
2013-09-29 00:42:00,53.7,52.2,30.26,NNE,22,2.0,3.0,95,0.00,,,0.00,0,HR-IXPWINDi_r2_v1.2.,2013-09-29 04:42:00,
2013-09-29 00:47:00,53.6,52.1,30.26,NNE,22,2.0,3.0,95,0.00,,,0.00,0,HR-IXPWINDi_r2_v1.2.,2013-09-29 04:47:00,
2013-09-29 00:52:00,54.0,52.8,30.26,NNE,22,3.0,3.0,96,0.00,,,0.00,0,HR-IXPWINDi_r2_v1.2.,2013-09-29 04:52:00,
2013-09-29 00:57:00,53.7,52.2,30.27,NNE,22,1.0,3.0,95,0.00,,,0.00,0,HR-IXPWINDi_r2_v1.2.,2013-09-29 04:57:00,
2013-09-29 01:03:00,53.4,51.9,30.26,NNE,22,2.0,3.0,95,0.00,,,0.00,0,HR-IXPWINDi_r2_v1.2.,2013-09-29 05:03:00,
2013-09-29 01:08:00,53.5,52.3,30.26,NNE,22,0.0,3.0,96,0.00,,,0.00,0,HR-IXPWINDi_r2_v1.2.,2013-09-29 05:08:00,
2013-09-29 01:13:00,54.2,53.0,30.26,NNE,22,0.0,3.0,96,0.00,,,0.00,0,HR-IXPWINDi_r2_v1.2.,2013-09-29 05:13:00,
2013-09-29 01:18:00,53.5,52.0,30.26,NNE,22,2.0,2.0,95,0.00,,,0.00,0,HR-IXPWINDi_r2_v1.2.,2013-09-29 05:18:00,
2013-09-29 01:24:00,53.2,51.7,30.26,NNE,22,2.0,2.0,95,0.00,,,0.00,0,HR-IXPWINDi_r2_v1.2.,2013-09-29 05:24:00,
2013-09-29 01:29:00,53.0,51.5,30.26,NNE,22,2.0,3.0,95,0.00,,,0.00,0,HR-IXPWINDi_r2_v1.2.,2013-09-29 05:29:00,
2013-09-29 01:34:00,53.1,51.9,30.26,NNE,22,1.0,3.0,96,0.00,,,0.00,0,HR-IXPWINDi_r2_v1.2.,2013-09-29 05:34:00,
2013-09-29 01:39:00,52.4,50.9,30.26,NNE,22,2.0,3.0,95,0.00,,,0.00,0,HR-IXPWINDi_r2_v1.2.,2013-09-29 05:39:00,
2013-09-29 01:44:00,52.1,50.6,30.26,NNE,22,2.0,3.0,95,0.00,,,0.00,0,HR-IXPWINDi_r2_v1.2.,2013-09-29 05:44:00,
2013-09-29 01:49:00,51.9,50.7,30.26,NNE,22,4.0,5.0,96,0.00,,,0.00,0,HR-IXPWINDi_r2_v1.2.,2013-09-29 05:49:00,
2013-09-29 01:54:00,51.9,50.7,30.25,NNE,28,2.0,6.0,96,0.00,,,0.00,0,HR-IXPWINDi_r2_v1.2.,2013-09-29 05:54:00,
2013-09-29 02:00:00,51.6,50.4,30.25,NNE,28,4.0,6.0,96,0.00,,,0.00,0,HR-IXPWINDi_r2_v1.2.,2013-09-29 06:00:00,
2013-09-29 02:05:00,51.2,50.0,30.25,NNE,28,4.0,4.0,96,0.00,,,0.00,0,HR-IXPWINDi_r2_v1.2.,2013-09-29 06:05:00,
2013-09-29 02:10:00,51.2,50.0,30.25,NNE,31,3.0,5.0,96,0.00,,,0.00,0,HR-IXPWINDi_r2_v1.2.,2013-09-29 06:10:00,
2013-09-29 02:15:00,51.0,49.8,30.25,NNE,31,4.0,5.0,96,0.00,,,0.00,0,HR-IXPWINDi_r2_v1.2.,2013-09-29 06:15:00,
2013-09-29 02:20:00,50.9,49.7,30.25,NNE,31,3.0,5.0,96,0.00,,,0.00,0,HR-IXPWINDi_r2_v1.2.,2013-09-29 06:20:00,
2013-09-29 02:26:00,50.7,49.5,30.25,NNE,31,4.0,5.0,96,0.00,,,0.00,0,HR-IXPWINDi_r2_v1.2.,2013-09-29 06:26:00,
2013-09-29 02:31:00,50.4,49.2,30.25,NNE,28,5.0,6.0,96,0.00,,,0.00,0,HR-IXPWINDi_r2_v1.2.,2013-09-29 06:31:00,
2013-09-29 02:36:00,50.3,49.1,30.24,NNE,28,5.0,6.0,96,0.00,,,0.00,0,HR-IXPWINDi_r2_v1.2.,2013-09-29 06:36:00,
2013-09-29 02:41:00,50.3,49.1,30.25,NNE,32,4.0,6.0,96,0.00,,,0.00,0,HR-IXPWINDi_r2_v1.2.,2013-09-29 06:41:00,
2013-09-29 02:47:00,50.3,49.1,30.24,NNE,30,5.0,6.0,96,0.00,,,0.00,0,HR-IXPWINDi_r2_v1.2.,2013-09-29 06:47:00,
2013-09-29 02:52:00,50.2,49.0,30.24,NNE,26,3.0,6.0,96,0.00,,,0.00,0,HR-IXPWINDi_r2_v1.2.,2013-09-29 06:52:00,
2013-09-29 02:57:00,50.0,48.8,30.24,NNE,26,4.0,5.0,96,0.00,,,0.00,0,HR-IXPWINDi_r2_v1.2.,2013-09-29 06:57:00,
2013-09-29 03:02:00,50.0,48.8,30.24,NNE,26,4.0,6.0,96,0.00,,,0.00,0,HR-IXPWINDi_r2_v1.2.,2013-09-29 07:02:00,
2013-09-29 03:07:00,49.9,48.7,30.24,NNE,28,4.0,6.0,96,0.00,,,0.00,0,HR-IXPWINDi_r2_v1.2.,2013-09-29 07:07:00,
2013-09-29 03:12:00,49.9,48.7,30.24,NNE,30,4.0,6.0,96,0.00,,,0.00,0,HR-IXPWINDi_r2_v1.2.,2013-09-29 07:12:00,
2013-09-29 03:18:00,49.8,48.6,30.24,NNE,23,5.0,5.0,96,0.00,,,0.00,0,HR-IXPWINDi_r2_v1.2.,2013-09-29 07:18:00,
2013-09-29 03:23:00,49.7,48.5,30.24,NNE,26,4.0,5.0,96,0.00,,,0.00,0,HR-IXPWINDi_r2_v1.2.,2013-09-29 07:23:00,
2013-09-29 03:28:00,49.6,48.4,30.23,NNE,21,4.0,5.0,96,0.00,,,0.00,0,HR-IXPWINDi_r2_v1.2.,2013-09-29 07:28:00,
2013-09-29 03:33:00,49.7,48.5,30.23,NNE,22,5.0,6.0,96,0.00,,,0.00,0,HR-IXPWINDi_r2_v1.2.,2013-09-29 07:33:00,
2013-09-29 03:39:00,49.7,48.5,30.23,NNE,23,5.0,6.0,96,0.00,,,0.00,0,HR-IXPWINDi_r2_v1.2.,2013-09-29 07:39:00,
2013-09-29 03:44:00,49.5,48.3,30.23,NNE,31,4.0,5.0,96,0.00,,,0.00,0,HR-IXPWINDi_r2_v1.2.,2013-09-29 07:44:00,
2013-09-29 03:49:00,49.4,48.2,30.23,NNE,31,4.0,5.0,96,0.00,,,0.00,0,HR-IXPWINDi_r2_v1.2.,2013-09-29 07:49:00,
2013-09-29 03:54:00,49.2,48.0,30.23,NNE,31,3.0,5.0,96,0.00,,,0.00,0,HR-IXPWINDi_r2_v1.2.,2013-09-29 07:54:00,
2013-09-29 03:59:00,49.1,47.9,30.23,NNE,31,4.0,5.0,96,0.00,,,0.00,0,HR-IXPWINDi_r2_v1.2.,2013-09-29 07:59:00,
2013-09-29 04:04:00,48.8,47.6,30.23,NNE,31,3.0,6.0,96,0.00,,,0.00,0,HR-IXPWINDi_r2_v1.2.,2013-09-29 08:04:00,
2013-09-29 04:09:00,48.7,47.5,30.23,NNE,31,4.0,6.0,96,0.00,,,0.00,0,HR-IXPWINDi_r2_v1.2.,2013-09-29 08:09:00,
2013-09-29 04:14:00,48.4,47.2,30.24,NNE,25,4.0,5.0,96,0.00,,,0.00,0,HR-IXPWINDi_r2_v1.2.,2013-09-29 08:14:00,
2013-09-29 04:19:00,48.1,47.0,30.23,NNE,19,5.0,7.0,96,0.00,,,0.00,0,HR-IXPWINDi_r2_v1.2.,2013-09-29 08:19:00,
2013-09-29 04:24:00,48.0,46.9,30.23,NNE,20,3.0,8.0,96,0.00,,,0.00,0,HR-IXPWINDi_r2_v1.2.,2013-09-29 08:24:00,
2013-09-29 04:30:00,48.1,47.0,30.23,NNE,17,4.0,8.0,96,0.00,,,0.00,0,HR-IXPWINDi_r2_v1.2.,2013-09-29 08:30:00,
2013-09-29 04:35:00,48.2,47.1,30.23,NNE,23,5.0,7.0,96,0.00,,,0.00,0,HR-IXPWINDi_r2_v1.2.,2013-09-29 08:35:00,
2013-09-29 04:40:00,48.3,47.1,30.23,NNE,17,5.0,6.0,96,0.00,,,0.00,0,HR-IXPWINDi_r2_v1.2.,2013-09-29 08:40:00,
2013-09-29 04:45:00,48.3,47.1,30.23,NNE,22,4.0,6.0,96,0.00,,,0.00,0,HR-IXPWINDi_r2_v1.2.,2013-09-29 08:45:00,
2013-09-29 04:50:00,48.3,47.1,30.23,NNE,17,4.0,6.0,96,0.00,,,0.00,0,HR-IXPWINDi_r2_v1.2.,2013-09-29 08:50:00,
2013-09-29 04:55:00,48.5,47.3,30.23,NE,37,4.0,6.0,96,0.00,,,0.01,0,HR-IXPWINDi_r2_v1.2.,2013-09-29 08:55:00,
2013-09-29 05:01:00,48.5,47.3,30.22,NNE,26,4.0,6.0,96,0.00,,,0.01,0,HR-IXPWINDi_r2_v1.2.,2013-09-29 09:01:00,
2013-09-29 05:06:00,48.6,47.4,30.22,NNE,23,5.0,6.0,96,0.00,,,0.01,0,HR-IXPWINDi_r2_v1.2.,2013-09-29 09:06:00,
2013-09-29 05:11:00,48.5,47.3,30.23,NNE,30,6.0,7.0,96,0.00,,,0.01,0,HR-IXPWINDi_r2_v1.2.,2013-09-29 09:11:00,
2013-09-29 05:16:00,48.4,47.2,30.23,NNE,31,5.0,7.0,96,0.00,,,0.01,0,HR-IXPWINDi_r2_v1.2.,2013-09-29 09:16:00,
2013-09-29 05:22:00,48.2,47.3,30.23,NNE,33,4.0,7.0,97,0.00,,,0.01,0,HR-IXPWINDi_r2_v1.2.,2013-09-29 09:22:00,
2013-09-29 05:27:00,48.1,47.0,30.23,NNE,28,5.0,6.0,96,0.00,,,0.01,0,HR-IXPWINDi_r2_v1.2.,2013-09-29 09:27:00,
2013-09-29 05:32:00,48.1,47.0,30.23,NE,34,4.0,6.0,96,0.00,,,0.01,0,HR-IXPWINDi_r2_v1.2.,2013-09-29 09:32:00,
2013-09-29 05:37:00,48.1,47.0,30.23,NNE,22,4.0,6.0,96,0.00,,,0.01,0,HR-IXPWINDi_r2_v1.2.,2013-09-29 09:37:00,
2013-09-29 05:42:00,48.0,46.9,30.23,NNE,33,4.0,6.0,96,0.00,,,0.01,0,HR-IXPWINDi_r2_v1.2.,2013-09-29 09:42:00,
2013-09-29 05:47:00,48.0,47.1,30.23,NNE,28,4.0,5.0,97,0.00,,,0.01,0,HR-IXPWINDi_r2_v1.2.,2013-09-29 09:47:00,
2013-09-29 05:52:00,48.0,47.1,30.23,NNE,22,4.0,6.0,97,0.00,,,0.01,0,HR-IXPWINDi_r2_v1.2.,2013-09-29 09:52:00,
2013-09-29 05:58:00,48.0,47.1,30.23,NNE,24,4.0,6.0,97,0.00,,,0.01,0,HR-IXPWINDi_r2_v1.2.,2013-09-29 09:58:00,
2013-09-29 06:03:00,47.9,47.0,30.23,NNE,32,5.0,6.0,97,0.00,,,0.01,0,HR-IXPWINDi_r2_v1.2.,2013-09-29 10:03:00,
2013-09-29 06:08:00,47.8,46.9,30.23,NNE,26,5.0,6.0,97,0.00,,,0.01,0,HR-IXPWINDi_r2_v1.2.,2013-09-29 10:08:00,
2013-09-29 06:13:00,47.6,46.7,30.23,NNE,30,4.0,6.0,97,0.00,,,0.01,0,HR-IXPWINDi_r2_v1.2.,2013-09-29 10:13:00,
2013-09-29 06:18:00,47.7,46.8,30.23,NNE,33,5.0,5.0,97,0.00,,,0.01,0,HR-IXPWINDi_r2_v1.2.,2013-09-29 10:18:00,
2013-09-29 06:23:00,47.8,46.9,30.23,NNE,23,4.0,6.0,97,0.00,,,0.01,0,HR-IXPWINDi_r2_v1.2.,2013-09-29 10:23:00,
2013-09-29 06:29:00,48.0,47.1,30.23,NE,37,1.0,6.0,97,0.00,,,0.01,0,HR-IXPWINDi_r2_v1.2.,2013-09-29 10:29:00,
2013-09-29 06:34:00,48.2,47.3,30.23,NNE,33,3.0,5.0,97,0.00,,,0.01,0,HR-IXPWINDi_r2_v1.2.,2013-09-29 10:34:00,
2013-09-29 06:39:00,48.4,47.5,30.23,NNE,17,4.0,5.0,97,0.00,,,0.01,0,HR-IXPWINDi_r2_v1.2.,2013-09-29 10:39:00,
2013-09-29 06:44:00,48.5,47.6,30.23,NE,43,3.0,5.0,97,0.00,,,0.01,5,HR-IXPWINDi_r2_v1.2.,2013-09-29 10:44:00,
2013-09-29 06:49:00,49.0,48.1,30.23,NNE,31,5.0,7.0,97,0.00,,,0.01,7,HR-IXPWINDi_r2_v1.2.,2013-09-29 10:49:00,
2013-09-29 06:55:00,49.1,48.2,30.24,NNE,23,4.0,7.0,97,0.00,,,0.01,9,HR-IXPWINDi_r2_v1.2.,2013-09-29 10:55:00,
2013-09-29 07:00:00,49.2,48.3,30.24,NE,46,1.0,6.0,97,0.00,,,0.01,14,HR-IXPWINDi_r2_v1.2.,2013-09-29 11:00:00,
2013-09-29 07:05:00,49.3,48.4,30.23,NE,44,0.0,5.0,97,0.00,,,0.01,14,HR-IXPWINDi_r2_v1.2.,2013-09-29 11:05:00,
2013-09-29 07:10:00,49.4,48.5,30.24,North,5,0.0,3.0,97,0.00,,,0.01,18,HR-IXPWINDi_r2_v1.2.,2013-09-29 11:10:00,
2013-09-29 07:15:00,49.5,48.6,30.23,North,9,0.0,3.0,97,0.00,,,0.01,19,HR-IXPWINDi_r2_v1.2.,2013-09-29 11:15:00,
2013-09-29 07:20:00,49.6,48.7,30.23,NNE,22,2.0,3.0,97,0.00,,,0.01,25,HR-IXPWINDi_r2_v1.2.,2013-09-29 11:20:00,
2013-09-29 07:25:00,49.7,48.8,30.23,NNE,22,1.0,3.0,97,0.00,,,0.01,21,HR-IXPWINDi_r2_v1.2.,2013-09-29 11:25:00,
2013-09-29 07:30:00,49.9,49.0,30.23,North,5,3.0,3.0,97,0.00,,,0.01,28,HR-IXPWINDi_r2_v1.2.,2013-09-29 11:30:00,
2013-09-29 07:36:00,50.1,49.2,30.23,North,5,1.0,3.0,97,0.00,,,0.01,40,HR-IXPWINDi_r2_v1.2.,2013-09-29 11:36:00,
2013-09-29 07:41:00,50.5,49.6,30.23,North,5,2.0,3.0,97,0.00,,,0.01,46,HR-IXPWINDi_r2_v1.2.,2013-09-29 11:41:00,
2013-09-29 07:46:00,50.7,49.8,30.23,North,5,1.0,3.0,97,0.00,,,0.01,51,HR-IXPWINDi_r2_v1.2.,2013-09-29 11:46:00,
2013-09-29 07:51:00,51.0,50.1,30.23,North,5,1.0,3.0,97,0.00,,,0.01,56,HR-IXPWINDi_r2_v1.2.,2013-09-29 11:51:00,
2013-09-29 07:56:00,51.3,50.4,30.23,North,5,1.0,2.0,97,0.00,,,0.01,62,HR-IXPWINDi_r2_v1.2.,2013-09-29 11:56:00,
2013-09-29 08:01:00,51.6,50.7,30.23,North,5,2.0,3.0,97,0.00,,,0.01,58,HR-IXPWINDi_r2_v1.2.,2013-09-29 12:01:00,
2013-09-29 08:06:00,51.9,51.0,30.22,North,351,2.0,4.0,97,0.00,,,0.01,63,HR-IXPWINDi_r2_v1.2.,2013-09-29 12:06:00,
2013-09-29 08:12:00,52.1,51.2,30.23,North,5,2.0,4.0,97,0.00,,,0.01,84,HR-IXPWINDi_r2_v1.2.,2013-09-29 12:12:00,
2013-09-29 08:17:00,52.4,51.5,30.23,North,5,0.0,4.0,97,0.00,,,0.01,84,HR-IXPWINDi_r2_v1.2.,2013-09-29 12:17:00,
2013-09-29 08:22:00,52.7,51.8,30.23,North,5,2.0,4.0,97,0.00,,,0.01,102,HR-IXPWINDi_r2_v1.2.,2013-09-29 12:22:00,
2013-09-29 08:27:00,53.1,52.2,30.23,North,5,0.0,4.0,97,0.00,,,0.01,116,HR-IXPWINDi_r2_v1.2.,2013-09-29 12:27:00,
2013-09-29 08:32:00,53.3,52.4,30.23,North,5,2.0,3.0,97,0.00,,,0.01,91,HR-IXPWINDi_r2_v1.2.,2013-09-29 12:32:00,
2013-09-29 08:37:00,53.3,52.4,30.23,North,5,2.0,3.0,97,0.00,,,0.01,128,HR-IXPWINDi_r2_v1.2.,2013-09-29 12:37:00,
2013-09-29 08:43:00,53.7,52.8,30.23,ENE,57,0.0,3.0,97,0.00,,,0.01,186,HR-IXPWINDi_r2_v1.2.,2013-09-29 12:43:00,
2013-09-29 08:48:00,54.2,53.6,30.23,ENE,69,0.0,2.0,98,0.00,,,0.01,204,HR-IXPWINDi_r2_v1.2.,2013-09-29 12:48:00,
2013-09-29 08:53:00,54.5,53.6,30.24,ESE,105,0.0,2.0,97,0.00,,,0.01,172,HR-IXPWINDi_r2_v1.2.,2013-09-29 12:53:00,
2013-09-29 08:58:00,54.1,53.5,30.24,ENE,78,1.0,3.0,98,0.00,,,0.01,176,HR-IXPWINDi_r2_v1.2.,2013-09-29 12:58:00,
2013-09-29 09:03:00,53.8,52.9,30.24,ESE,108,0.0,3.0,97,0.00,,,0.01,213,HR-IXPWINDi_r2_v1.2.,2013-09-29 13:03:00,
2013-09-29 09:08:00,54.3,53.4,30.24,SE,136,3.0,4.0,97,0.00,,,0.01,287,HR-IXPWINDi_r2_v1.2.,2013-09-29 13:08:00,
2013-09-29 09:13:00,54.4,53.5,30.24,SE,136,0.0,4.0,97,0.00,,,0.01,246,HR-IXPWINDi_r2_v1.2.,2013-09-29 13:13:00,
2013-09-29 09:19:00,54.7,54.1,30.24,ESE,105,1.0,3.0,98,0.00,,,0.01,299,HR-IXPWINDi_r2_v1.2.,2013-09-29 13:19:00,
2013-09-29 09:24:00,54.4,53.5,30.24,SSE,166,1.0,2.0,97,0.00,,,0.01,241,HR-IXPWINDi_r2_v1.2.,2013-09-29 13:24:00,
2013-09-29 09:29:00,54.2,53.6,30.24,South,191,3.0,3.0,98,0.00,,,0.01,246,HR-IXPWINDi_r2_v1.2.,2013-09-29 13:29:00,
2013-09-29 09:34:00,54.1,53.2,30.24,South,191,0.0,3.0,97,0.00,,,0.01,236,HR-IXPWINDi_r2_v1.2.,2013-09-29 13:34:00,
2013-09-29 09:39:00,54.3,53.4,30.24,South,182,0.0,3.0,97,0.00,,,0.01,381,HR-IXPWINDi_r2_v1.2.,2013-09-29 13:39:00,
2013-09-29 09:44:00,54.2,53.3,30.24,South,181,2.0,3.0,97,0.00,,,0.01,223,HR-IXPWINDi_r2_v1.2.,2013-09-29 13:44:00,
2013-09-29 09:49:00,54.2,53.3,30.24,South,181,2.0,4.0,97,0.00,,,0.01,299,HR-IXPWINDi_r2_v1.2.,2013-09-29 13:49:00,
2013-09-29 09:55:00,54.7,54.1,30.24,South,173,3.0,4.0,98,0.00,,,0.01,388,HR-IXPWINDi_r2_v1.2.,2013-09-29 13:55:00,
2013-09-29 10:00:00,55.3,54.7,30.24,SSE,151,3.0,3.0,98,0.00,,,0.01,388,HR-IXPWINDi_r2_v1.2.,2013-09-29 14:00:00,
2013-09-29 10:05:00,54.8,53.9,30.24,SE,139,4.0,6.0,97,0.00,,,0.01,227,HR-IXPWINDi_r2_v1.2.,2013-09-29 14:05:00,
2013-09-29 10:10:00,54.7,53.8,30.24,SSE,151,0.0,6.0,97,0.00,,,0.01,269,HR-IXPWINDi_r2_v1.2.,2013-09-29 14:10:00,
2013-09-29 10:15:00,54.9,54.0,30.24,SSE,151,3.0,6.0,97,0.00,,,0.01,241,HR-IXPWINDi_r2_v1.2.,2013-09-29 14:15:00,
2013-09-29 10:20:00,54.5,53.6,30.24,SSE,157,2.0,4.0,97,0.00,,,0.01,269,HR-IXPWINDi_r2_v1.2.,2013-09-29 14:20:00,
2013-09-29 10:25:00,54.7,53.8,30.24,SSE,159,2.0,4.0,97,0.00,,,0.01,468,HR-IXPWINDi_r2_v1.2.,2013-09-29 14:25:00,
2013-09-29 10:30:00,55.2,54.3,30.24,SSE,150,2.0,5.0,97,0.00,,,0.01,615,HR-IXPWINDi_r2_v1.2.,2013-09-29 14:30:00,
2013-09-29 10:35:00,55.3,54.4,30.24,SE,146,3.0,5.0,97,0.00,,,0.01,229,HR-IXPWINDi_r2_v1.2.,2013-09-29 14:35:00,
2013-09-29 10:40:00,55.2,54.0,30.24,SE,146,1.0,5.0,96,0.00,,,0.01,248,HR-IXPWINDi_r2_v1.2.,2013-09-29 14:40:00,
2013-09-29 10:45:00,55.0,53.8,30.24,SSE,148,3.0,4.0,96,0.00,,,0.01,306,HR-IXPWINDi_r2_v1.2.,2013-09-29 14:45:00,
2013-09-29 10:50:00,55.3,54.1,30.24,SSE,148,0.0,4.0,96,0.00,,,0.01,680,HR-IXPWINDi_r2_v1.2.,2013-09-29 14:50:00,
2013-09-29 10:56:00,55.9,54.7,30.23,SSE,148,3.0,3.0,96,0.00,,,0.01,652,HR-IXPWINDi_r2_v1.2.,2013-09-29 14:56:00,
2013-09-29 11:01:00,56.2,54.7,30.23,SSE,160,2.0,4.0,95,0.00,,,0.01,671,HR-IXPWINDi_r2_v1.2.,2013-09-29 15:01:00,
2013-09-29 11:06:00,56.6,54.8,30.23,SSE,155,2.0,6.0,94,0.00,,,0.01,682,HR-IXPWINDi_r2_v1.2.,2013-09-29 15:06:00,
2013-09-29 11:11:00,57.4,55.3,30.23,South,180,2.0,6.0,93,0.00,,,0.01,701,HR-IXPWINDi_r2_v1.2.,2013-09-29 15:11:00,
2013-09-29 11:16:00,57.7,55.3,30.23,South,184,0.0,4.0,92,0.00,,,0.01,707,HR-IXPWINDi_r2_v1.2.,2013-09-29 15:16:00,
2013-09-29 11:21:00,57.6,54.6,30.23,South,180,4.0,4.0,90,0.00,,,0.01,696,HR-IXPWINDi_r2_v1.2.,2013-09-29 15:21:00,
2013-09-29 11:26:00,57.7,55.3,30.23,South,169,1.0,5.0,92,0.00,,,0.01,700,HR-IXPWINDi_r2_v1.2.,2013-09-29 15:26:00,
2013-09-29 11:32:00,58.0,54.7,30.22,South,177,4.0,5.0,89,0.00,,,0.01,705,HR-IXPWINDi_r2_v1.2.,2013-09-29 15:32:00,
2013-09-29 11:37:00,58.1,54.8,30.22,South,178,3.0,5.0,89,0.00,,,0.01,708,HR-IXPWINDi_r2_v1.2.,2013-09-29 15:37:00,
2013-09-29 11:42:00,57.7,54.7,30.22,South,180,4.0,5.0,90,0.00,,,0.01,714,HR-IXPWINDi_r2_v1.2.,2013-09-29 15:42:00,
2013-09-29 11:47:00,58.7,55.7,30.22,SE,127,1.0,5.0,90,0.00,,,0.01,717,HR-IXPWINDi_r2_v1.2.,2013-09-29 15:47:00,
2013-09-29 11:53:00,60.3,55.4,30.21,SSE,159,0.0,7.0,84,0.00,,,0.01,722,HR-IXPWINDi_r2_v1.2.,2013-09-29 15:53:00,
2013-09-29 11:58:00,61.3,55.7,30.21,ESE,119,0.0,7.0,82,0.00,,,0.01,724,HR-IXPWINDi_r2_v1.2.,2013-09-29 15:58:00,
2013-09-29 12:03:00,60.8,54.2,30.21,East,98,7.0,7.0,79,0.00,,,0.00,729,HR-IXPWINDi_r2_v1.2.,2013-09-29 16:03:00,
2013-09-29 12:08:00,59.9,53.0,30.21,East,88,3.0,8.0,78,0.00,,,0.00,728,HR-IXPWINDi_r2_v1.2.,2013-09-29 16:08:00,
2013-09-29 12:13:00,59.5,52.9,30.21,ESE,120,7.0,8.0,79,0.00,,,0.00,729,HR-IXPWINDi_r2_v1.2.,2013-09-29 16:13:00,
2013-09-29 12:18:00,60.0,53.4,30.21,ESE,116,3.0,8.0,79,0.00,,,0.00,731,HR-IXPWINDi_r2_v1.2.,2013-09-29 16:18:00,
2013-09-29 12:24:00,59.5,52.9,30.21,SE,124,4.0,8.0,79,0.00,,,0.00,731,HR-IXPWINDi_r2_v1.2.,2013-09-29 16:24:00,
2013-09-29 12:29:00,59.7,53.1,30.21,ESE,119,7.0,9.0,79,0.00,,,0.00,731,HR-IXPWINDi_r2_v1.2.,2013-09-29 16:29:00,
2013-09-29 12:34:00,60.2,52.9,30.21,ENE,69,2.0,10.0,77,0.00,,,0.00,731,HR-IXPWINDi_r2_v1.2.,2013-09-29 16:34:00,
2013-09-29 12:39:00,60.4,53.1,30.20,ESE,115,2.0,10.0,77,0.00,,,0.00,729,HR-IXPWINDi_r2_v1.2.,2013-09-29 16:39:00,
2013-09-29 12:44:00,60.3,53.3,30.20,SE,140,4.0,10.0,78,0.00,,,0.00,731,HR-IXPWINDi_r2_v1.2.,2013-09-29 16:44:00,
2013-09-29 12:49:00,59.9,52.6,30.20,ESE,111,5.0,9.0,77,0.00,,,0.00,729,HR-IXPWINDi_r2_v1.2.,2013-09-29 16:49:00,
2013-09-29 12:55:00,59.9,53.7,30.20,SSE,156,1.0,9.0,80,0.00,,,0.00,729,HR-IXPWINDi_r2_v1.2.,2013-09-29 16:55:00,
2013-09-29 13:00:00,60.7,53.7,30.20,SE,142,3.0,8.0,78,0.00,,,0.00,726,HR-IXPWINDi_r2_v1.2.,2013-09-29 17:00:00,
2013-09-29 13:05:00,60.4,53.1,30.20,ESE,120,4.0,8.0,77,0.00,,,0.00,722,HR-IXPWINDi_r2_v1.2.,2013-09-29 17:05:00,
2013-09-29 13:10:00,60.9,52.9,30.20,ENE,74,4.0,8.0,75,0.00,,,0.00,719,HR-IXPWINDi_r2_v1.2.,2013-09-29 17:10:00,
2013-09-29 13:15:00,60.5,53.2,30.20,ESE,112,4.0,8.0,77,0.00,,,0.00,717,HR-IXPWINDi_r2_v1.2.,2013-09-29 17:15:00,
2013-09-29 13:20:00,60.4,53.4,30.20,East,90,2.0,9.0,78,0.00,,,0.00,712,HR-IXPWINDi_r2_v1.2.,2013-09-29 17:20:00,
2013-09-29 13:26:00,61.8,53.7,30.20,ESE,115,2.0,9.0,75,0.00,,,0.00,710,HR-IXPWINDi_r2_v1.2.,2013-09-29 17:26:00,
2013-09-29 13:31:00,61.7,53.3,30.20,ESE,111,9.0,10.0,74,0.00,,,0.00,705,HR-IXPWINDi_r2_v1.2.,2013-09-29 17:31:00,
2013-09-29 13:36:00,60.8,53.5,30.20,SSE,148,2.0,10.0,77,0.00,,,0.00,701,HR-IXPWINDi_r2_v1.2.,2013-09-29 17:36:00,
2013-09-29 13:41:00,61.7,54.0,30.20,SE,143,2.0,10.0,76,0.00,,,0.00,698,HR-IXPWINDi_r2_v1.2.,2013-09-29 17:41:00,
2013-09-29 13:46:00,61.7,53.3,30.20,ESE,106,3.0,8.0,74,0.00,,,0.00,689,HR-IXPWINDi_r2_v1.2.,2013-09-29 17:46:00,
2013-09-29 13:51:00,61.9,53.5,30.19,ESE,102,4.0,8.0,74,0.00,,,0.00,684,HR-IXPWINDi_r2_v1.2.,2013-09-29 17:51:00,
2013-09-29 13:56:00,61.4,53.3,30.19,ENE,76,7.0,9.0,75,0.00,,,0.00,679,HR-IXPWINDi_r2_v1.2.,2013-09-29 17:56:00,
2013-09-29 14:01:00,62.2,54.1,30.19,ENE,71,7.0,9.0,75,0.00,,,0.00,670,HR-IXPWINDi_r2_v1.2.,2013-09-29 18:01:00,
2013-09-29 14:06:00,62.4,54.3,30.19,ESE,117,5.0,9.0,75,0.00,,,0.00,663,HR-IXPWINDi_r2_v1.2.,2013-09-29 18:06:00,
2013-09-29 14:12:00,61.8,53.7,30.18,South,188,2.0,9.0,75,0.00,,,0.00,652,HR-IXPWINDi_r2_v1.2.,2013-09-29 18:12:00,
2013-09-29 14:17:00,61.6,53.5,30.18,ENE,76,4.0,9.0,75,0.00,,,0.00,643,HR-IXPWINDi_r2_v1.2.,2013-09-29 18:17:00,
2013-09-29 14:22:00,61.6,53.5,30.18,East,90,8.0,11.0,75,0.00,,,0.00,635,HR-IXPWINDi_r2_v1.2.,2013-09-29 18:22:00,
2013-09-29 14:27:00,61.4,53.7,30.18,ESE,119,2.0,11.0,76,0.00,,,0.00,626,HR-IXPWINDi_r2_v1.2.,2013-09-29 18:27:00,
2013-09-29 14:32:00,60.5,53.2,30.18,NE,51,5.0,9.0,77,0.00,,,0.00,617,HR-IXPWINDi_r2_v1.2.,2013-09-29 18:32:00,
2013-09-29 14:38:00,60.5,52.8,30.17,ENE,63,5.0,9.0,76,0.00,,,0.00,606,HR-IXPWINDi_r2_v1.2.,2013-09-29 18:38:00,
2013-09-29 14:43:00,60.7,53.0,30.17,SSE,159,4.0,10.0,76,0.00,,,0.00,599,HR-IXPWINDi_r2_v1.2.,2013-09-29 18:43:00,
2013-09-29 14:48:00,61.2,52.8,30.17,East,85,2.0,10.0,74,0.00,,,0.00,589,HR-IXPWINDi_r2_v1.2.,2013-09-29 18:48:00,
2013-09-29 14:53:00,61.9,52.7,30.17,SE,131,4.0,9.0,72,0.00,,,0.00,575,HR-IXPWINDi_r2_v1.2.,2013-09-29 18:53:00,
2013-09-29 14:58:00,61.9,53.8,30.17,East,101,3.0,9.0,75,0.00,,,0.00,566,HR-IXPWINDi_r2_v1.2.,2013-09-29 18:58:00,
2013-09-29 15:03:00,61.5,52.7,30.17,ESE,115,4.0,9.0,73,0.00,,,0.00,555,HR-IXPWINDi_r2_v1.2.,2013-09-29 19:03:00,
2013-09-29 15:08:00,62.0,53.2,30.17,ESE,119,4.0,9.0,73,0.00,,,0.00,545,HR-IXPWINDi_r2_v1.2.,2013-09-29 19:08:00,
2013-09-29 15:13:00,62.2,53.0,30.17,SE,132,6.0,8.0,72,0.00,,,0.00,531,HR-IXPWINDi_r2_v1.2.,2013-09-29 19:13:00,
2013-09-29 15:19:00,61.5,53.1,30.16,ENE,75,4.0,10.0,74,0.00,,,0.00,519,HR-IXPWINDi_r2_v1.2.,2013-09-29 19:19:00,
2013-09-29 15:24:00,60.9,52.5,30.16,ESE,109,7.0,10.0,74,0.00,,,0.00,506,HR-IXPWINDi_r2_v1.2.,2013-09-29 19:24:00,
2013-09-29 15:29:00,61.1,53.1,30.16,ESE,120,7.0,9.0,75,0.00,,,0.00,496,HR-IXPWINDi_r2_v1.2.,2013-09-29 19:29:00,
2013-09-29 15:34:00,61.1,53.4,30.16,East,80,6.0,10.0,76,0.00,,,0.00,480,HR-IXPWINDi_r2_v1.2.,2013-09-29 19:34:00,
2013-09-29 15:39:00,61.2,53.2,30.14,South,179,1.0,10.0,75,0.00,,,0.00,466,HR-IXPWINDi_r2_v1.2.,2013-09-29 19:39:00,
2013-09-29 15:44:00,60.3,52.6,30.15,ESE,104,7.0,9.0,76,0.00,,,0.00,455,HR-IXPWINDi_r2_v1.2.,2013-09-29 19:44:00,
2013-09-29 15:48:00,60.7,53.4,30.13,SE,136,5.0,10.0,77,0.00,,,0.00,446,HR-IXPWINDi_r2_v1.2.,2013-09-29 19:48:00,
2013-09-29 15:53:00,61.3,53.2,30.12,ESE,104,5.0,10.0,75,0.00,,,0.00,432,HR-IXPWINDi_r2_v1.2.,2013-09-29 19:53:00,
2013-09-29 15:58:00,60.4,52.7,30.12,ENE,69,5.0,10.0,76,0.00,,,0.00,420,HR-IXPWINDi_r2_v1.2.,2013-09-29 19:58:00,
2013-09-29 16:03:00,60.7,53.0,30.11,ESE,108,5.0,10.0,76,0.00,,,0.00,404,HR-IXPWINDi_r2_v1.2.,2013-09-29 20:03:00,
2013-09-29 16:08:00,60.3,52.6,30.10,NE,54,3.0,10.0,76,0.00,,,0.00,390,HR-IXPWINDi_r2_v1.2.,2013-09-29 20:08:00,
2013-09-29 16:13:00,60.0,52.4,30.11,ESE,111,5.0,10.0,76,0.00,,,0.00,376,HR-IXPWINDi_r2_v1.2.,2013-09-29 20:13:00,
2013-09-29 16:18:00,60.0,52.7,30.12,ENE,65,1.0,9.0,77,0.00,,,0.00,362,HR-IXPWINDi_r2_v1.2.,2013-09-29 20:18:00,
2013-09-29 16:24:00,61.2,53.5,30.10,East,99,0.0,9.0,76,0.00,,,0.00,346,HR-IXPWINDi_r2_v1.2.,2013-09-29 20:24:00,
2013-09-29 16:29:00,60.9,52.9,30.10,East,85,0.0,8.0,75,0.00,,,0.00,334,HR-IXPWINDi_r2_v1.2.,2013-09-29 20:29:00,
2013-09-29 16:34:00,60.5,53.2,30.11,ESE,107,2.0,8.0,77,0.00,,,0.00,315,HR-IXPWINDi_r2_v1.2.,2013-09-29 20:34:00,
2013-09-29 16:39:00,60.1,52.8,30.12,East,99,6.0,10.0,77,0.00,,,0.00,302,HR-IXPWINDi_r2_v1.2.,2013-09-29 20:39:00,
2013-09-29 16:44:00,60.2,52.9,30.13,ESE,106,5.0,10.0,77,0.00,,,0.00,285,HR-IXPWINDi_r2_v1.2.,2013-09-29 20:44:00,
2013-09-29 16:50:00,60.2,52.9,30.12,East,96,2.0,9.0,77,0.00,,,0.00,265,HR-IXPWINDi_r2_v1.2.,2013-09-29 20:50:00,
2013-09-29 16:55:00,60.0,53.1,30.12,ENE,66,3.0,9.0,78,0.00,,,0.00,248,HR-IXPWINDi_r2_v1.2.,2013-09-29 20:55:00,
2013-09-29 17:00:00,59.9,53.0,30.13,NE,55,4.0,9.0,78,0.00,,,0.00,227,HR-IXPWINDi_r2_v1.2.,2013-09-29 21:00:00,
2013-09-29 17:05:00,60.5,53.2,30.12,ESE,107,7.0,9.0,77,0.00,,,0.00,206,HR-IXPWINDi_r2_v1.2.,2013-09-29 21:05:00,
2013-09-29 17:10:00,60.6,53.3,30.12,East,100,7.0,8.0,77,0.00,,,0.00,185,HR-IXPWINDi_r2_v1.2.,2013-09-29 21:10:00,
2013-09-29 17:16:00,59.6,52.7,30.11,East,82,7.0,8.0,78,0.00,,,0.00,163,HR-IXPWINDi_r2_v1.2.,2013-09-29 21:16:00,
2013-09-29 17:21:00,60.0,53.1,30.11,ESE,117,2.0,8.0,78,0.00,,,0.00,142,HR-IXPWINDi_r2_v1.2.,2013-09-29 21:21:00,
2013-09-29 17:26:00,60.0,52.7,30.12,NE,56,1.0,8.0,77,0.00,,,0.00,125,HR-IXPWINDi_r2_v1.2.,2013-09-29 21:26:00,
2013-09-29 17:31:00,59.8,52.5,30.14,East,79,7.0,8.0,77,0.00,,,0.00,105,HR-IXPWINDi_r2_v1.2.,2013-09-29 21:31:00,
2013-09-29 17:37:00,59.1,52.5,30.14,ESE,117,4.0,8.0,79,0.00,,,0.00,86,HR-IXPWINDi_r2_v1.2.,2013-09-29 21:37:00,
2013-09-29 17:42:00,58.9,52.7,30.13,East,91,3.0,8.0,80,0.00,,,0.00,70,HR-IXPWINDi_r2_v1.2.,2013-09-29 21:42:00,
2013-09-29 17:47:00,58.9,52.7,30.13,ESE,103,2.0,8.0,80,0.00,,,0.00,54,HR-IXPWINDi_r2_v1.2.,2013-09-29 21:47:00,
2013-09-29 17:52:00,58.8,52.2,30.13,ENE,69,3.0,7.0,79,0.00,,,0.00,42,HR-IXPWINDi_r2_v1.2.,2013-09-29 21:52:00,
2013-09-29 17:57:00,58.9,53.0,30.14,NE,42,0.0,7.0,81,0.00,,,0.00,32,HR-IXPWINDi_r2_v1.2.,2013-09-29 21:57:00,
2013-09-29 18:02:00,58.6,52.4,30.14,East,96,5.0,7.0,80,0.00,,,0.00,23,HR-IXPWINDi_r2_v1.2.,2013-09-29 22:02:00,
2013-09-29 18:07:00,58.3,52.4,30.14,ENE,66,2.0,6.0,81,0.00,,,0.00,16,HR-IXPWINDi_r2_v1.2.,2013-09-29 22:07:00,
2013-09-29 18:13:00,58.3,52.4,30.15,NE,55,2.0,6.0,81,0.00,,,0.00,12,HR-IXPWINDi_r2_v1.2.,2013-09-29 22:13:00,
2013-09-29 18:18:00,58.2,52.7,30.15,ENE,71,1.0,6.0,82,0.00,,,0.00,11,HR-IXPWINDi_r2_v1.2.,2013-09-29 22:18:00,
2013-09-29 18:23:00,57.9,52.4,30.14,East,96,1.0,6.0,82,0.00,,,0.00,7,HR-IXPWINDi_r2_v1.2.,2013-09-29 22:23:00,
2013-09-29 18:28:00,57.6,52.1,30.14,East,99,1.0,6.0,82,0.00,,,0.00,5,HR-IXPWINDi_r2_v1.2.,2013-09-29 22:28:00,
2013-09-29 18:33:00,57.4,51.9,30.15,ESE,123,0.0,5.0,82,0.00,,,0.00,0,HR-IXPWINDi_r2_v1.2.,2013-09-29 22:33:00,
2013-09-29 18:38:00,57.0,51.8,30.15,ENE,69,0.0,5.0,83,0.00,,,0.00,0,HR-IXPWINDi_r2_v1.2.,2013-09-29 22:38:00,
2013-09-29 18:43:00,56.9,52.1,30.14,ESE,118,1.0,5.0,84,0.00,,,0.00,0,HR-IXPWINDi_r2_v1.2.,2013-09-29 22:43:00,
2013-09-29 18:48:00,56.9,52.1,30.14,SE,130,0.0,5.0,84,0.00,,,0.00,0,HR-IXPWINDi_r2_v1.2.,2013-09-29 22:48:00,
2013-09-29 18:54:00,56.8,52.0,30.14,East,95,3.0,3.0,84,0.00,,,0.00,0,HR-IXPWINDi_r2_v1.2.,2013-09-29 22:54:00,
2013-09-29 18:59:00,56.8,52.0,30.14,ESE,111,2.0,7.0,84,0.00,,,0.00,0,HR-IXPWINDi_r2_v1.2.,2013-09-29 22:59:00,
2013-09-29 19:04:00,56.8,52.0,30.14,ESE,107,5.0,7.0,84,0.00,,,0.00,0,HR-IXPWINDi_r2_v1.2.,2013-09-29 23:04:00,
2013-09-29 19:09:00,56.8,52.0,30.14,East,97,3.0,7.0,84,0.00,,,0.00,0,HR-IXPWINDi_r2_v1.2.,2013-09-29 23:09:00,
2013-09-29 19:14:00,56.8,52.0,30.14,ESE,116,0.0,7.0,84,0.00,,,0.00,0,HR-IXPWINDi_r2_v1.2.,2013-09-29 23:14:00,
2013-09-29 19:19:00,56.9,52.4,30.14,ESE,118,3.0,7.0,85,0.00,,,0.00,0,HR-IXPWINDi_r2_v1.2.,2013-09-29 23:19:00,
2013-09-29 19:25:00,56.9,52.4,30.14,ESE,110,1.0,6.0,85,0.00,,,0.00,0,HR-IXPWINDi_r2_v1.2.,2013-09-29 23:25:00,
2013-09-29 19:30:00,56.9,52.4,30.14,SE,130,2.0,5.0,85,0.00,,,0.00,0,HR-IXPWINDi_r2_v1.2.,2013-09-29 23:30:00,
2013-09-29 19:35:00,56.8,52.3,30.15,ESE,123,2.0,5.0,85,0.00,,,0.00,0,HR-IXPWINDi_r2_v1.2.,2013-09-29 23:35:00,
2013-09-29 19:40:00,56.8,52.3,30.15,ESE,103,3.0,6.0,85,0.00,,,0.00,0,HR-IXPWINDi_r2_v1.2.,2013-09-29 23:40:00,
2013-09-29 19:45:00,56.8,52.3,30.15,ESE,111,1.0,6.0,85,0.00,,,0.00,0,HR-IXPWINDi_r2_v1.2.,2013-09-29 23:45:00,
2013-09-29 19:50:00,56.8,52.3,30.15,ESE,117,1.0,5.0,85,0.00,,,0.00,0,HR-IXPWINDi_r2_v1.2.,2013-09-29 23:50:00,
2013-09-29 19:55:00,56.8,52.3,30.15,ESE,119,3.0,5.0,85,0.00,,,0.00,0,HR-IXPWINDi_r2_v1.2.,2013-09-29 23:55:00,
2013-09-29 20:01:00,56.8,52.6,30.15,ESE,123,4.0,5.0,86,0.00,,,0.00,0,HR-IXPWINDi_r2_v1.2.,2013-09-30 00:01:00,
2013-09-29 20:06:00,56.8,52.6,30.15,ESE,119,4.0,7.0,86,0.00,,,0.00,0,HR-IXPWINDi_r2_v1.2.,2013-09-30 00:06:00,
2013-09-29 20:11:00,56.8,52.6,30.15,East,82,1.0,7.0,86,0.00,,,0.00,0,HR-IXPWINDi_r2_v1.2.,2013-09-30 00:11:00,
2013-09-29 20:16:00,56.9,52.7,30.14,SE,132,1.0,6.0,86,0.00,,,0.00,0,HR-IXPWINDi_r2_v1.2.,2013-09-30 00:16:00,
2013-09-29 20:21:00,56.9,52.7,30.14,ESE,117,3.0,6.0,86,0.00,,,0.00,0,HR-IXPWINDi_r2_v1.2.,2013-09-30 00:21:00,
2013-09-29 20:26:00,56.9,53.0,30.14,ESE,107,1.0,6.0,87,0.00,,,0.00,0,HR-IXPWINDi_r2_v1.2.,2013-09-30 00:26:00,
2013-09-29 20:31:00,56.9,53.0,30.14,ESE,102,2.0,6.0,87,0.00,,,0.00,0,HR-IXPWINDi_r2_v1.2.,2013-09-30 00:31:00,
2013-09-29 20:37:00,56.9,53.0,30.14,SE,132,8.0,8.0,87,0.00,,,0.00,0,HR-IXPWINDi_r2_v1.2.,2013-09-30 00:37:00,
2013-09-29 20:42:00,56.9,53.0,30.14,SSE,148,3.0,8.0,87,0.00,,,0.00,0,HR-IXPWINDi_r2_v1.2.,2013-09-30 00:42:00,
2013-09-29 20:47:00,56.9,53.0,30.14,SE,140,3.0,8.0,87,0.00,,,0.00,0,HR-IXPWINDi_r2_v1.2.,2013-09-30 00:47:00,
2013-09-29 20:52:00,56.9,53.0,30.14,East,95,3.0,7.0,87,0.00,,,0.00,0,HR-IXPWINDi_r2_v1.2.,2013-09-30 00:52:00,
2013-09-29 20:57:00,56.9,53.0,30.14,SE,129,4.0,7.0,87,0.00,,,0.00,0,HR-IXPWINDi_r2_v1.2.,2013-09-30 00:57:00,
2013-09-29 21:02:00,57.0,53.1,30.13,ESE,113,5.0,6.0,87,0.00,,,0.00,0,HR-IXPWINDi_r2_v1.2.,2013-09-30 01:02:00,
2013-09-29 21:07:00,56.9,53.3,30.13,ESE,123,0.0,6.0,88,0.00,,,0.00,0,HR-IXPWINDi_r2_v1.2.,2013-09-30 01:07:00,
2013-09-29 21:13:00,56.9,53.3,30.13,SE,128,2.0,7.0,88,0.00,,,0.00,0,HR-IXPWINDi_r2_v1.2.,2013-09-30 01:13:00,
2013-09-29 21:18:00,56.8,53.2,30.13,East,101,0.0,7.0,88,0.00,,,0.00,0,HR-IXPWINDi_r2_v1.2.,2013-09-30 01:18:00,
2013-09-29 21:23:00,56.8,53.5,30.13,ESE,107,0.0,6.0,89,0.00,,,0.00,0,HR-IXPWINDi_r2_v1.2.,2013-09-30 01:23:00,
2013-09-29 21:29:00,57.0,53.7,30.13,SE,143,1.0,6.0,89,0.00,,,0.00,0,HR-IXPWINDi_r2_v1.2.,2013-09-30 01:29:00,
2013-09-29 21:34:00,57.0,53.7,30.13,ESE,115,4.0,6.0,89,0.00,,,0.00,0,HR-IXPWINDi_r2_v1.2.,2013-09-30 01:34:00,
2013-09-29 21:39:00,57.1,54.1,30.13,SE,137,3.0,6.0,90,0.00,,,0.00,0,HR-IXPWINDi_r2_v1.2.,2013-09-30 01:39:00,
2013-09-29 21:44:00,57.0,54.0,30.13,SE,146,2.0,6.0,90,0.00,,,0.00,0,HR-IXPWINDi_r2_v1.2.,2013-09-30 01:44:00,
2013-09-29 21:49:00,57.1,54.1,30.13,SE,139,4.0,5.0,90,0.00,,,0.00,0,HR-IXPWINDi_r2_v1.2.,2013-09-30 01:49:00,
2013-09-29 21:54:00,57.1,54.1,30.13,SE,138,3.0,5.0,90,0.00,,,0.00,0,HR-IXPWINDi_r2_v1.2.,2013-09-30 01:54:00,
2013-09-29 21:59:00,57.1,54.1,30.13,ESE,118,3.0,5.0,90,0.00,,,0.00,0,HR-IXPWINDi_r2_v1.2.,2013-09-30 01:59:00,
2013-09-29 22:05:00,57.1,54.1,30.13,SE,135,0.0,5.0,90,0.00,,,0.00,0,HR-IXPWINDi_r2_v1.2.,2013-09-30 02:05:00,
2013-09-29 22:11:00,56.9,53.9,30.13,ESE,110,0.0,5.0,90,0.00,,,0.00,0,HR-IXPWINDi_r2_v1.2.,2013-09-30 02:11:00,
2013-09-29 22:16:00,56.9,53.9,30.13,East,101,1.0,5.0,90,0.00,,,0.00,0,HR-IXPWINDi_r2_v1.2.,2013-09-30 02:16:00,
2013-09-29 22:21:00,57.1,54.1,30.13,ESE,118,4.0,5.0,90,0.00,,,0.00,0,HR-IXPWINDi_r2_v1.2.,2013-09-30 02:21:00,
2013-09-29 22:26:00,57.1,54.1,30.13,East,96,3.0,5.0,90,0.00,,,0.00,0,HR-IXPWINDi_r2_v1.2.,2013-09-30 02:26:00,
2013-09-29 22:31:00,57.1,54.1,30.13,ESE,103,2.0,4.0,90,0.00,,,0.00,0,HR-IXPWINDi_r2_v1.2.,2013-09-30 02:31:00,
2013-09-29 22:36:00,57.3,54.6,30.13,SSE,148,3.0,4.0,91,0.00,,,0.00,0,HR-IXPWINDi_r2_v1.2.,2013-09-30 02:36:00,
2013-09-29 22:42:00,57.3,54.6,30.13,SE,126,2.0,4.0,91,0.00,,,0.00,0,HR-IXPWINDi_r2_v1.2.,2013-09-30 02:42:00,
2013-09-29 22:47:00,57.5,54.8,30.13,ESE,116,0.0,5.0,91,0.00,,,0.00,0,HR-IXPWINDi_r2_v1.2.,2013-09-30 02:47:00,
2013-09-29 22:52:00,57.5,54.8,30.13,SSE,160,2.0,5.0,91,0.00,,,0.00,0,HR-IXPWINDi_r2_v1.2.,2013-09-30 02:52:00,
2013-09-29 22:57:00,57.5,54.8,30.12,SE,128,3.0,5.0,91,0.00,,,0.00,0,HR-IXPWINDi_r2_v1.2.,2013-09-30 02:57:00,
2013-09-29 23:02:00,57.5,54.8,30.12,East,94,0.0,5.0,91,0.00,,,0.00,0,HR-IXPWINDi_r2_v1.2.,2013-09-30 03:02:00,
2013-09-29 23:07:00,57.6,54.9,30.13,SE,134,2.0,5.0,91,0.00,,,0.00,0,HR-IXPWINDi_r2_v1.2.,2013-09-30 03:07:00,
2013-09-29 23:12:00,57.6,54.9,30.13,SE,138,1.0,5.0,91,0.00,,,0.00,0,HR-IXPWINDi_r2_v1.2.,2013-09-30 03:12:00,
2013-09-29 23:17:00,57.5,54.8,30.13,SE,135,4.0,5.0,91,0.00,,,0.00,0,HR-IXPWINDi_r2_v1.2.,2013-09-30 03:17:00,
2013-09-29 23:23:00,57.5,54.8,30.13,South,169,0.0,4.0,91,0.00,,,0.00,0,HR-IXPWINDi_r2_v1.2.,2013-09-30 03:23:00,
2013-09-29 23:28:00,57.5,54.8,30.13,SE,134,1.0,4.0,91,0.00,,,0.00,0,HR-IXPWINDi_r2_v1.2.,2013-09-30 03:28:00,
2013-09-29 23:33:00,57.6,54.9,30.13,SSE,162,0.0,5.0,91,0.00,,,0.00,0,HR-IXPWINDi_r2_v1.2.,2013-09-30 03:33:00,
2013-09-29 23:38:00,57.6,54.9,30.13,South,190,0.0,5.0,91,0.00,,,0.00,0,HR-IXPWINDi_r2_v1.2.,2013-09-30 03:38:00,
2013-09-29 23:43:00,57.6,54.9,30.13,SSE,158,0.0,4.0,91,0.00,,,0.00,0,HR-IXPWINDi_r2_v1.2.,2013-09-30 03:43:00,
2013-09-29 23:48:00,57.6,54.9,30.12,ESE,119,2.0,5.0,91,0.00,,,0.00,0,HR-IXPWINDi_r2_v1.2.,2013-09-30 03:48:00,
2013-09-29 23:53:00,57.5,54.8,30.12,ESE,119,1.0,5.0,91,0.00,,,0.00,0,HR-IXPWINDi_r2_v1.2.,2013-09-30 03:53:00,
2013-09-29 23:58:00,56.7,53.7,30.12,ESE,119,0.0,3.0,90,0.00,,,0.00,0,HR-IXPWINDi_r2_v1.2.,2013-09-30 03:58:00,